sensor_id;sensor_type;location;lat;lon;timestamp;temperature;humidity
13223;DHT22;6676;45.192;5.722;2023-03-01T00:00:31;3.90;99.90
13223;DHT22;6676;45.192;5.722;2023-03-01T00:03:23;3.90;99.90
13223;DHT22;6676;45.192;5.722;2023-03-01T00:06:14;3.90;99.90
13223;DHT22;6676;45.192;5.722;2023-03-01T00:09:06;3.90;99.90
13223;DHT22;6676;45.192;5.722;2023-03-01T00:12:07;3.90;99.90
13223;DHT22;6676;45.192;5.722;2023-03-01T00:14:59;3.90;99.90
13223;DHT22;6676;45.192;5.722;2023-03-01T00:17:53;3.90;99.90
13223;DHT22;6676;45.192;5.722;2023-03-01T00:20:51;3.90;99.90
13223;DHT22;6676;45.192;5.722;2023-03-01T00:26:37;3.90;99.90
13223;DHT22;6676;45.192;5.722;2023-03-01T00:29:31;3.90;99.90
13223;DHT22;6676;45.192;5.722;2023-03-01T00:32:24;3.90;99.90
13223;DHT22;6676;45.192;5.722;2023-03-01T00:35:16;4.00;99.90
13223;DHT22;6676;45.192;5.722;2023-03-01T00:38:15;4.00;99.90
13223;DHT22;6676;45.192;5.722;2023-03-01T00:41:08;4.00;99.90
13223;DHT22;6676;45.192;5.722;2023-03-01T00:44:03;4.00;99.90
13223;DHT22;6676;45.192;5.722;2023-03-01T00:46:56;4.00;99.90
13223;DHT22;6676;45.192;5.722;2023-03-01T00:49:48;4.10;99.90
13223;DHT22;6676;45.192;5.722;2023-03-01T00:52:39;4.10;99.90
13223;DHT22;6676;45.192;5.722;2023-03-01T00:55:31;4.10;99.90
13223;DHT22;6676;45.192;5.722;2023-03-01T00:58:22;4.10;99.90
13223;DHT22;6676;45.192;5.722;2023-03-01T01:01:19;4.10;99.90
13223;DHT22;6676;45.192;5.722;2023-03-01T01:06:50;4.10;99.90
13223;DHT22;6676;45.192;5.722;2023-03-01T01:09:42;4.10;99.90
13223;DHT22;6676;45.192;5.722;2023-03-01T01:12:34;4.20;99.90
13223;DHT22;6676;45.192;5.722;2023-03-01T01:15:25;4.10;99.90
13223;DHT22;6676;45.192;5.722;2023-03-01T01:18:16;4.10;99.90
13223;DHT22;6676;45.192;5.722;2023-03-01T01:21:10;4.40;99.90
13223;DHT22;6676;45.192;5.722;2023-03-01T01:24:04;4.40;99.90
13223;DHT22;6676;45.192;5.722;2023-03-01T01:26:55;4.30;99.90
13223;DHT22;6676;45.192;5.722;2023-03-01T01:29:47;4.20;99.90
13223;DHT22;6676;45.192;5.722;2023-03-01T01:32:38;4.20;99.90
13223;DHT22;6676;45.192;5.722;2023-03-01T01:35:30;4.20;99.90
13223;DHT22;6676;45.192;5.722;2023-03-01T01:41:05;4.30;99.90
13223;DHT22;6676;45.192;5.722;2023-03-01T01:44:19;4.30;99.90
13223;DHT22;6676;45.192;5.722;2023-03-01T01:47:14;4.40;99.90
13223;DHT22;6676;45.192;5.722;2023-03-01T01:50:17;4.50;99.90
13223;DHT22;6676;45.192;5.722;2023-03-01T01:53:24;4.50;99.90
13223;DHT22;6676;45.192;5.722;2023-03-01T01:56:17;4.40;99.90
13223;DHT22;6676;45.192;5.722;2023-03-01T01:59:10;4.30;99.90
13223;DHT22;6676;45.192;5.722;2023-03-01T02:02:05;4.30;99.90
13223;DHT22;6676;45.192;5.722;2023-03-01T02:05:01;4.30;99.90
13223;DHT22;6676;45.192;5.722;2023-03-01T02:07:54;4.30;99.90
13223;DHT22;6676;45.192;5.722;2023-03-01T02:10:46;4.30;99.90
13223;DHT22;6676;45.192;5.722;2023-03-01T02:13:43;4.30;99.90
13223;DHT22;6676;45.192;5.722;2023-03-01T02:16:34;4.30;99.90
13223;DHT22;6676;45.192;5.722;2023-03-01T02:22:20;4.30;99.90
13223;DHT22;6676;45.192;5.722;2023-03-01T02:25:22;4.30;99.90
13223;DHT22;6676;45.192;5.722;2023-03-01T02:28:31;4.40;99.90
13223;DHT22;6676;45.192;5.722;2023-03-01T02:31:24;4.30;99.90
13223;DHT22;6676;45.192;5.722;2023-03-01T02:34:34;4.30;99.90
13223;DHT22;6676;45.192;5.722;2023-03-01T02:37:27;4.30;99.90
13223;DHT22;6676;45.192;5.722;2023-03-01T02:40:20;4.30;99.90
13223;DHT22;6676;45.192;5.722;2023-03-01T02:43:13;4.30;99.90
13223;DHT22;6676;45.192;5.722;2023-03-01T02:46:08;4.30;99.90
13223;DHT22;6676;45.192;5.722;2023-03-01T02:49:00;4.30;99.90
13223;DHT22;6676;45.192;5.722;2023-03-01T02:52:06;4.30;99.90
13223;DHT22;6676;45.192;5.722;2023-03-01T02:54:58;4.30;99.90
13223;DHT22;6676;45.192;5.722;2023-03-01T02:58:02;4.20;99.90
13223;DHT22;6676;45.192;5.722;2023-03-01T03:00:55;4.20;99.90
13223;DHT22;6676;45.192;5.722;2023-03-01T03:03:50;4.20;99.90
13223;DHT22;6676;45.192;5.722;2023-03-01T03:06:53;4.20;99.90
13223;DHT22;6676;45.192;5.722;2023-03-01T03:09:45;4.20;99.90
13223;DHT22;6676;45.192;5.722;2023-03-01T03:12:36;4.10;99.90
13223;DHT22;6676;45.192;5.722;2023-03-01T03:18:12;4.10;99.90
13223;DHT22;6676;45.192;5.722;2023-03-01T03:21:04;4.10;99.90
13223;DHT22;6676;45.192;5.722;2023-03-01T03:23:57;4.10;99.90
13223;DHT22;6676;45.192;5.722;2023-03-01T03:26:49;4.10;99.90
13223;DHT22;6676;45.192;5.722;2023-03-01T03:29:40;4.10;99.90
13223;DHT22;6676;45.192;5.722;2023-03-01T03:32:31;4.10;99.90
13223;DHT22;6676;45.192;5.722;2023-03-01T03:35:25;4.10;99.90
13223;DHT22;6676;45.192;5.722;2023-03-01T03:38:20;4.20;99.90
13223;DHT22;6676;45.192;5.722;2023-03-01T03:41:12;4.20;99.90
13223;DHT22;6676;45.192;5.722;2023-03-01T03:44:03;4.20;99.90
13223;DHT22;6676;45.192;5.722;2023-03-01T03:46:55;4.20;99.90
13223;DHT22;6676;45.192;5.722;2023-03-01T03:49:47;4.20;99.90
13223;DHT22;6676;45.192;5.722;2023-03-01T03:52:38;4.20;99.90
13223;DHT22;6676;45.192;5.722;2023-03-01T03:55:36;4.20;99.90
13223;DHT22;6676;45.192;5.722;2023-03-01T03:58:29;4.20;99.90
13223;DHT22;6676;45.192;5.722;2023-03-01T04:01:21;4.20;99.90
13223;DHT22;6676;45.192;5.722;2023-03-01T04:04:12;4.20;99.90
13223;DHT22;6676;45.192;5.722;2023-03-01T04:09:47;4.20;99.90
13223;DHT22;6676;45.192;5.722;2023-03-01T04:12:39;4.10;99.90
13223;DHT22;6676;45.192;5.722;2023-03-01T04:15:33;4.10;99.90
13223;DHT22;6676;45.192;5.722;2023-03-01T04:18:25;4.20;99.90
13223;DHT22;6676;45.192;5.722;2023-03-01T04:21:16;4.20;99.90
13223;DHT22;6676;45.192;5.722;2023-03-01T04:24:09;4.20;99.90
13223;DHT22;6676;45.192;5.722;2023-03-01T04:27:02;4.20;99.90
13223;DHT22;6676;45.192;5.722;2023-03-01T04:29:57;4.20;99.90
13223;DHT22;6676;45.192;5.722;2023-03-01T04:32:49;4.20;99.90
13223;DHT22;6676;45.192;5.722;2023-03-01T04:35:41;4.20;99.90
13223;DHT22;6676;45.192;5.722;2023-03-01T04:38:32;4.10;99.90
13223;DHT22;6676;45.192;5.722;2023-03-01T04:41:24;4.10;99.90
13223;DHT22;6676;45.192;5.722;2023-03-01T04:44:16;4.10;99.90
13223;DHT22;6676;45.192;5.722;2023-03-01T04:47:09;4.10;99.90
13223;DHT22;6676;45.192;5.722;2023-03-01T04:50:01;4.10;99.90
13223;DHT22;6676;45.192;5.722;2023-03-01T04:56:05;4.20;99.90
13223;DHT22;6676;45.192;5.722;2023-03-01T04:58:57;4.10;99.90
13223;DHT22;6676;45.192;5.722;2023-03-01T05:01:50;4.20;99.90
13223;DHT22;6676;45.192;5.722;2023-03-01T05:04:41;4.20;99.90
13223;DHT22;6676;45.192;5.722;2023-03-01T05:07:33;4.30;99.90
13223;DHT22;6676;45.192;5.722;2023-03-01T05:10:25;4.20;99.90
13223;DHT22;6676;45.192;5.722;2023-03-01T05:13:19;4.10;99.90
13223;DHT22;6676;45.192;5.722;2023-03-01T05:16:12;4.10;99.90
13223;DHT22;6676;45.192;5.722;2023-03-01T05:19:03;4.10;99.90
13223;DHT22;6676;45.192;5.722;2023-03-01T05:21:57;4.10;99.90
13223;DHT22;6676;45.192;5.722;2023-03-01T05:24:55;4.10;99.90
13223;DHT22;6676;45.192;5.722;2023-03-01T05:27:46;4.10;99.90
13223;DHT22;6676;45.192;5.722;2023-03-01T05:30:37;4.10;99.90
13223;DHT22;6676;45.192;5.722;2023-03-01T05:33:29;4.20;99.90
13223;DHT22;6676;45.192;5.722;2023-03-01T05:36:20;4.20;99.90
13223;DHT22;6676;45.192;5.722;2023-03-01T05:39:12;4.10;99.90
13223;DHT22;6676;45.192;5.722;2023-03-01T05:42:03;4.10;99.90
13223;DHT22;6676;45.192;5.722;2023-03-01T05:44:54;4.10;99.90
13223;DHT22;6676;45.192;5.722;2023-03-01T05:47:48;4.10;99.90
13223;DHT22;6676;45.192;5.722;2023-03-01T05:50:41;4.10;99.90
13223;DHT22;6676;45.192;5.722;2023-03-01T05:53:33;4.10;99.90
13223;DHT22;6676;45.192;5.722;2023-03-01T05:56:27;4.10;99.90
13223;DHT22;6676;45.192;5.722;2023-03-01T05:59:23;4.10;99.90
13223;DHT22;6676;45.192;5.722;2023-03-01T06:02:16;4.10;99.90
13223;DHT22;6676;45.192;5.722;2023-03-01T06:05:10;4.10;99.90
13223;DHT22;6676;45.192;5.722;2023-03-01T06:08:02;4.00;99.90
13223;DHT22;6676;45.192;5.722;2023-03-01T06:10:54;4.00;99.90
13223;DHT22;6676;45.192;5.722;2023-03-01T06:13:46;3.90;99.90
13223;DHT22;6676;45.192;5.722;2023-03-01T06:16:38;3.90;99.90
13223;DHT22;6676;45.192;5.722;2023-03-01T06:19:29;3.90;99.90
13223;DHT22;6676;45.192;5.722;2023-03-01T06:22:21;4.00;99.90
13223;DHT22;6676;45.192;5.722;2023-03-01T06:25:14;4.00;99.90
13223;DHT22;6676;45.192;5.722;2023-03-01T06:28:07;4.00;99.90
13223;DHT22;6676;45.192;5.722;2023-03-01T06:30:59;4.00;99.90
13223;DHT22;6676;45.192;5.722;2023-03-01T06:33:50;4.00;99.90
13223;DHT22;6676;45.192;5.722;2023-03-01T06:36:42;4.00;99.90
13223;DHT22;6676;45.192;5.722;2023-03-01T06:39:33;4.00;99.90
13223;DHT22;6676;45.192;5.722;2023-03-01T06:42:25;4.10;99.90
13223;DHT22;6676;45.192;5.722;2023-03-01T06:45:17;4.00;99.90
13223;DHT22;6676;45.192;5.722;2023-03-01T06:48:09;4.00;99.90
13223;DHT22;6676;45.192;5.722;2023-03-01T06:51:01;3.90;99.90
13223;DHT22;6676;45.192;5.722;2023-03-01T06:53:56;4.10;99.90
13223;DHT22;6676;45.192;5.722;2023-03-01T06:56:52;4.10;99.90
13223;DHT22;6676;45.192;5.722;2023-03-01T06:59:44;4.10;99.90
13223;DHT22;6676;45.192;5.722;2023-03-01T07:02:36;4.00;99.90
13223;DHT22;6676;45.192;5.722;2023-03-01T07:05:28;4.00;99.90
13223;DHT22;6676;45.192;5.722;2023-03-01T07:08:20;4.00;99.90
13223;DHT22;6676;45.192;5.722;2023-03-01T07:11:12;4.00;99.90
13223;DHT22;6676;45.192;5.722;2023-03-01T07:14:04;4.00;99.90
13223;DHT22;6676;45.192;5.722;2023-03-01T07:16:58;3.80;99.90
13223;DHT22;6676;45.192;5.722;2023-03-01T07:19:49;3.60;99.90
13223;DHT22;6676;45.192;5.722;2023-03-01T07:22:42;3.70;99.90
13223;DHT22;6676;45.192;5.722;2023-03-01T07:25:34;3.60;99.90
13223;DHT22;6676;45.192;5.722;2023-03-01T07:28:25;3.60;99.90
13223;DHT22;6676;45.192;5.722;2023-03-01T07:31:17;3.60;99.90
13223;DHT22;6676;45.192;5.722;2023-03-01T07:34:09;3.70;99.90
13223;DHT22;6676;45.192;5.722;2023-03-01T07:37:01;3.60;99.90
13223;DHT22;6676;45.192;5.722;2023-03-01T07:39:53;3.40;99.90
13223;DHT22;6676;45.192;5.722;2023-03-01T07:42:44;3.40;99.90
13223;DHT22;6676;45.192;5.722;2023-03-01T07:45:36;3.30;99.90
13223;DHT22;6676;45.192;5.722;2023-03-01T07:48:28;3.40;99.90
13223;DHT22;6676;45.192;5.722;2023-03-01T07:51:20;3.40;99.90
13223;DHT22;6676;45.192;5.722;2023-03-01T07:54:12;3.60;99.90
13223;DHT22;6676;45.192;5.722;2023-03-01T07:57:06;3.60;99.90
13223;DHT22;6676;45.192;5.722;2023-03-01T07:59:58;3.50;99.90
13223;DHT22;6676;45.192;5.722;2023-03-01T08:02:51;3.40;99.90
13223;DHT22;6676;45.192;5.722;2023-03-01T08:05:44;3.40;99.90
13223;DHT22;6676;45.192;5.722;2023-03-01T08:08:47;3.30;99.90
13223;DHT22;6676;45.192;5.722;2023-03-01T08:11:40;3.40;99.90
13223;DHT22;6676;45.192;5.722;2023-03-01T08:14:32;3.50;99.90
13223;DHT22;6676;45.192;5.722;2023-03-01T08:17:24;3.50;99.90
13223;DHT22;6676;45.192;5.722;2023-03-01T08:20:18;3.40;99.90
13223;DHT22;6676;45.192;5.722;2023-03-01T08:23:09;3.50;99.90
13223;DHT22;6676;45.192;5.722;2023-03-01T08:26:11;3.50;99.90
13223;DHT22;6676;45.192;5.722;2023-03-01T08:29:03;3.50;99.90
13223;DHT22;6676;45.192;5.722;2023-03-01T08:31:55;3.60;99.90
13223;DHT22;6676;45.192;5.722;2023-03-01T08:34:48;3.70;99.90
13223;DHT22;6676;45.192;5.722;2023-03-01T08:37:40;3.80;99.90
13223;DHT22;6676;45.192;5.722;2023-03-01T08:40:31;3.90;99.90
13223;DHT22;6676;45.192;5.722;2023-03-01T08:43:23;4.00;99.90
13223;DHT22;6676;45.192;5.722;2023-03-01T08:46:15;4.00;99.90
13223;DHT22;6676;45.192;5.722;2023-03-01T08:49:09;4.00;99.90
13223;DHT22;6676;45.192;5.722;2023-03-01T08:52:03;3.90;99.90
13223;DHT22;6676;45.192;5.722;2023-03-01T08:54:55;3.80;99.90
13223;DHT22;6676;45.192;5.722;2023-03-01T08:57:48;3.80;99.90
13223;DHT22;6676;45.192;5.722;2023-03-01T09:00:41;3.90;99.90
13223;DHT22;6676;45.192;5.722;2023-03-01T09:03:34;4.00;99.90
13223;DHT22;6676;45.192;5.722;2023-03-01T09:06:26;4.10;99.90
13223;DHT22;6676;45.192;5.722;2023-03-01T09:09:20;4.30;99.90
13223;DHT22;6676;45.192;5.722;2023-03-01T09:12:11;4.40;99.90
13223;DHT22;6676;45.192;5.722;2023-03-01T09:15:04;4.50;99.90
13223;DHT22;6676;45.192;5.722;2023-03-01T09:17:59;4.50;99.90
13223;DHT22;6676;45.192;5.722;2023-03-01T09:20:51;4.50;99.90
13223;DHT22;6676;45.192;5.722;2023-03-01T09:23:46;4.50;99.90
13223;DHT22;6676;45.192;5.722;2023-03-01T09:26:38;4.60;99.90
13223;DHT22;6676;45.192;5.722;2023-03-01T09:32:15;4.80;99.90
13223;DHT22;6676;45.192;5.722;2023-03-01T09:35:08;4.90;99.90
13223;DHT22;6676;45.192;5.722;2023-03-01T09:38:00;4.90;99.90
13223;DHT22;6676;45.192;5.722;2023-03-01T09:40:51;4.90;99.90
13223;DHT22;6676;45.192;5.722;2023-03-01T09:43:45;4.90;99.90
13223;DHT22;6676;45.192;5.722;2023-03-01T09:46:43;5.00;99.90
13223;DHT22;6676;45.192;5.722;2023-03-01T09:49:36;5.20;99.90
13223;DHT22;6676;45.192;5.722;2023-03-01T09:52:35;5.30;99.90
13223;DHT22;6676;45.192;5.722;2023-03-01T09:55:31;5.40;99.90
13223;DHT22;6676;45.192;5.722;2023-03-01T09:58:37;5.60;99.90
13223;DHT22;6676;45.192;5.722;2023-03-01T10:01:37;5.60;99.90
13223;DHT22;6676;45.192;5.722;2023-03-01T10:04:39;5.50;99.90
13223;DHT22;6676;45.192;5.722;2023-03-01T10:07:37;5.60;99.90
13223;DHT22;6676;45.192;5.722;2023-03-01T10:10:34;5.60;99.90
13223;DHT22;6676;45.192;5.722;2023-03-01T10:13:28;5.70;99.90
13223;DHT22;6676;45.192;5.722;2023-03-01T10:16:34;5.80;99.90
13223;DHT22;6676;45.192;5.722;2023-03-01T10:19:29;5.80;99.90
13223;DHT22;6676;45.192;5.722;2023-03-01T10:22:26;5.90;99.90
13223;DHT22;6676;45.192;5.722;2023-03-01T10:25:44;6.00;99.90
13223;DHT22;6676;45.192;5.722;2023-03-01T10:28:31;6.20;99.90
13223;DHT22;6676;45.192;5.722;2023-03-01T10:31:22;6.60;99.90
13223;DHT22;6676;45.192;5.722;2023-03-01T10:34:18;6.80;99.90
13223;DHT22;6676;45.192;5.722;2023-03-01T10:37:16;7.00;99.90
13223;DHT22;6676;45.192;5.722;2023-03-01T10:40:12;6.80;99.90
13223;DHT22;6676;45.192;5.722;2023-03-01T10:43:05;6.70;99.90
13223;DHT22;6676;45.192;5.722;2023-03-01T10:45:57;6.80;99.90
13223;DHT22;6676;45.192;5.722;2023-03-01T10:49:05;7.00;99.90
13223;DHT22;6676;45.192;5.722;2023-03-01T10:52:11;7.00;99.90
13223;DHT22;6676;45.192;5.722;2023-03-01T10:54:55;6.90;99.90
13223;DHT22;6676;45.192;5.722;2023-03-01T10:57:47;7.20;99.90
13223;DHT22;6676;45.192;5.722;2023-03-01T11:00:48;7.30;99.90
13223;DHT22;6676;45.192;5.722;2023-03-01T11:03:41;7.20;99.90
13223;DHT22;6676;45.192;5.722;2023-03-01T11:06:35;7.10;99.90
13223;DHT22;6676;45.192;5.722;2023-03-01T11:09:32;7.20;99.90
13223;DHT22;6676;45.192;5.722;2023-03-01T11:12:27;7.10;99.90
13223;DHT22;6676;45.192;5.722;2023-03-01T11:15:25;7.20;99.90
13223;DHT22;6676;45.192;5.722;2023-03-01T11:21:09;7.10;99.90
13223;DHT22;6676;45.192;5.722;2023-03-01T11:24:03;7.00;99.90
13223;DHT22;6676;45.192;5.722;2023-03-01T11:26:56;6.90;99.90
13223;DHT22;6676;45.192;5.722;2023-03-01T11:29:52;6.90;99.90
13223;DHT22;6676;45.192;5.722;2023-03-01T11:32:50;6.90;99.90
13223;DHT22;6676;45.192;5.722;2023-03-01T11:35:49;6.70;99.90
13223;DHT22;6676;45.192;5.722;2023-03-01T11:38:44;6.70;99.90
13223;DHT22;6676;45.192;5.722;2023-03-01T11:41:39;6.80;99.90
13223;DHT22;6676;45.192;5.722;2023-03-01T11:44:34;6.80;99.90
13223;DHT22;6676;45.192;5.722;2023-03-01T11:47:37;6.60;99.90
13223;DHT22;6676;45.192;5.722;2023-03-01T11:50:32;6.50;99.90
13223;DHT22;6676;45.192;5.722;2023-03-01T11:53:39;6.50;99.90
13223;DHT22;6676;45.192;5.722;2023-03-01T11:56:34;6.60;99.90
13223;DHT22;6676;45.192;5.722;2023-03-01T12:00:00;6.70;99.90
13223;DHT22;6676;45.192;5.722;2023-03-01T12:06:39;6.20;99.90
13223;DHT22;6676;45.192;5.722;2023-03-01T12:09:48;5.90;99.90
13223;DHT22;6676;45.192;5.722;2023-03-01T12:12:44;5.90;99.90
13223;DHT22;6676;45.192;5.722;2023-03-01T12:15:45;6.00;99.90
13223;DHT22;6676;45.192;5.722;2023-03-01T12:18:55;5.90;99.90
13223;DHT22;6676;45.192;5.722;2023-03-01T12:21:56;5.80;99.90
13223;DHT22;6676;45.192;5.722;2023-03-01T12:25:13;5.80;99.90
13223;DHT22;6676;45.192;5.722;2023-03-01T12:32:13;5.80;99.90
13223;DHT22;6676;45.192;5.722;2023-03-01T12:35:22;5.80;99.90
13223;DHT22;6676;45.192;5.722;2023-03-01T12:38:31;5.60;99.90
13223;DHT22;6676;45.192;5.722;2023-03-01T12:41:48;5.80;99.90
13223;DHT22;6676;45.192;5.722;2023-03-01T12:47:42;6.30;99.90
13223;DHT22;6676;45.192;5.722;2023-03-01T12:50:38;6.00;99.90
13223;DHT22;6676;45.192;5.722;2023-03-01T12:53:39;6.20;99.90
13223;DHT22;6676;45.192;5.722;2023-03-01T12:59:34;6.40;99.90
13223;DHT22;6676;45.192;5.722;2023-03-01T13:02:33;6.40;99.90
13223;DHT22;6676;45.192;5.722;2023-03-01T13:05:31;6.40;99.90
13223;DHT22;6676;45.192;5.722;2023-03-01T13:08:31;6.40;99.90
13223;DHT22;6676;45.192;5.722;2023-03-01T13:11:24;6.40;99.90
13223;DHT22;6676;45.192;5.722;2023-03-01T13:14:54;6.30;99.90
13223;DHT22;6676;45.192;5.722;2023-03-01T13:17:46;6.40;99.90
13223;DHT22;6676;45.192;5.722;2023-03-01T13:20:48;6.40;99.90
13223;DHT22;6676;45.192;5.722;2023-03-01T13:23:40;6.40;99.90
13223;DHT22;6676;45.192;5.722;2023-03-01T13:26:34;6.60;99.90
13223;DHT22;6676;45.192;5.722;2023-03-01T13:29:28;6.50;99.90
13223;DHT22;6676;45.192;5.722;2023-03-01T13:32:23;6.70;99.90
13223;DHT22;6676;45.192;5.722;2023-03-01T13:35:44;6.50;99.90
13223;DHT22;6676;45.192;5.722;2023-03-01T13:38:47;6.50;99.90
13223;DHT22;6676;45.192;5.722;2023-03-01T13:41:51;6.80;99.90
13223;DHT22;6676;45.192;5.722;2023-03-01T13:44:44;6.90;99.90
13223;DHT22;6676;45.192;5.722;2023-03-01T13:47:37;6.80;99.90
13223;DHT22;6676;45.192;5.722;2023-03-01T13:50:38;6.90;99.90
13223;DHT22;6676;45.192;5.722;2023-03-01T13:53:34;6.60;99.90
13223;DHT22;6676;45.192;5.722;2023-03-01T13:56:28;6.50;99.90
13223;DHT22;6676;45.192;5.722;2023-03-01T14:02:10;6.30;99.90
13223;DHT22;6676;45.192;5.722;2023-03-01T14:05:05;6.30;99.90
13223;DHT22;6676;45.192;5.722;2023-03-01T14:07:57;6.30;99.90
13223;DHT22;6676;45.192;5.722;2023-03-01T14:11:19;6.50;99.90
13223;DHT22;6676;45.192;5.722;2023-03-01T14:14:33;6.40;99.90
13223;DHT22;6676;45.192;5.722;2023-03-01T14:18:02;6.30;99.90
13223;DHT22;6676;45.192;5.722;2023-03-01T14:20:56;6.30;99.90
13223;DHT22;6676;45.192;5.722;2023-03-01T14:27:13;6.10;99.90
13223;DHT22;6676;45.192;5.722;2023-03-01T14:30:13;6.00;99.90
13223;DHT22;6676;45.192;5.722;2023-03-01T14:33:28;6.10;99.90
13223;DHT22;6676;45.192;5.722;2023-03-01T14:36:32;6.10;99.90
13223;DHT22;6676;45.192;5.722;2023-03-01T14:39:35;5.90;99.90
13223;DHT22;6676;45.192;5.722;2023-03-01T14:42:39;6.10;99.90
13223;DHT22;6676;45.192;5.722;2023-03-01T14:45:32;6.10;99.90
13223;DHT22;6676;45.192;5.722;2023-03-01T14:48:27;6.10;99.90
13223;DHT22;6676;45.192;5.722;2023-03-01T14:51:21;6.20;99.90
13223;DHT22;6676;45.192;5.722;2023-03-01T14:54:24;6.30;99.90
13223;DHT22;6676;45.192;5.722;2023-03-01T14:57:22;6.80;99.90
13223;DHT22;6676;45.192;5.722;2023-03-01T15:00:19;6.70;99.90
13223;DHT22;6676;45.192;5.722;2023-03-01T15:03:14;6.40;99.90
13223;DHT22;6676;45.192;5.722;2023-03-01T15:06:08;6.20;99.90
13223;DHT22;6676;45.192;5.722;2023-03-01T15:09:00;6.00;99.90
13223;DHT22;6676;45.192;5.722;2023-03-01T15:11:51;5.80;99.90
13223;DHT22;6676;45.192;5.722;2023-03-01T15:14:43;5.60;99.90
13223;DHT22;6676;45.192;5.722;2023-03-01T15:17:40;5.40;99.90
13223;DHT22;6676;45.192;5.722;2023-03-01T15:20:37;5.40;99.90
13223;DHT22;6676;45.192;5.722;2023-03-01T15:23:30;5.40;99.90
13223;DHT22;6676;45.192;5.722;2023-03-01T15:26:29;5.40;99.90
13223;DHT22;6676;45.192;5.722;2023-03-01T15:29:23;5.20;99.90
13223;DHT22;6676;45.192;5.722;2023-03-01T15:32:27;5.20;99.90
13223;DHT22;6676;45.192;5.722;2023-03-01T15:35:40;5.30;99.90
13223;DHT22;6676;45.192;5.722;2023-03-01T15:38:35;5.30;99.90
13223;DHT22;6676;45.192;5.722;2023-03-01T15:44:27;5.40;99.90
13223;DHT22;6676;45.192;5.722;2023-03-01T15:47:23;5.60;99.90
13223;DHT22;6676;45.192;5.722;2023-03-01T15:50:19;6.00;99.90
13223;DHT22;6676;45.192;5.722;2023-03-01T15:53:13;5.90;99.90
13223;DHT22;6676;45.192;5.722;2023-03-01T15:56:06;6.00;99.90
13223;DHT22;6676;45.192;5.722;2023-03-01T15:59:01;6.10;99.90
13223;DHT22;6676;45.192;5.722;2023-03-01T16:01:53;6.50;99.90
13223;DHT22;6676;45.192;5.722;2023-03-01T16:04:45;6.30;99.90
13223;DHT22;6676;45.192;5.722;2023-03-01T16:07:50;6.40;99.90
13223;DHT22;6676;45.192;5.722;2023-03-01T16:10:43;6.10;99.90
13223;DHT22;6676;45.192;5.722;2023-03-01T16:13:41;5.90;99.90
13223;DHT22;6676;45.192;5.722;2023-03-01T16:16:32;5.80;99.90
13223;DHT22;6676;45.192;5.722;2023-03-01T16:19:25;5.40;99.90
13223;DHT22;6676;45.192;5.722;2023-03-01T16:22:17;5.30;99.90
13223;DHT22;6676;45.192;5.722;2023-03-01T16:25:11;5.10;99.90
13223;DHT22;6676;45.192;5.722;2023-03-01T16:28:04;4.90;99.90
13223;DHT22;6676;45.192;5.722;2023-03-01T16:30:58;4.70;99.90
13223;DHT22;6676;45.192;5.722;2023-03-01T16:33:53;4.50;99.90
13223;DHT22;6676;45.192;5.722;2023-03-01T16:36:48;4.40;99.90
13223;DHT22;6676;45.192;5.722;2023-03-01T16:39:40;4.40;99.90
13223;DHT22;6676;45.192;5.722;2023-03-01T16:42:35;4.30;99.90
13223;DHT22;6676;45.192;5.722;2023-03-01T16:45:32;4.20;99.90
13223;DHT22;6676;45.192;5.722;2023-03-01T16:51:07;4.20;99.90
13223;DHT22;6676;45.192;5.722;2023-03-01T16:53:59;4.20;99.90
13223;DHT22;6676;45.192;5.722;2023-03-01T16:56:50;4.10;99.90
13223;DHT22;6676;45.192;5.722;2023-03-01T16:59:41;4.10;99.90
13223;DHT22;6676;45.192;5.722;2023-03-01T17:02:33;4.10;99.90
13223;DHT22;6676;45.192;5.722;2023-03-01T17:05:25;4.10;99.90
13223;DHT22;6676;45.192;5.722;2023-03-01T17:08:21;4.00;99.90
13223;DHT22;6676;45.192;5.722;2023-03-01T17:11:15;4.00;99.90
13223;DHT22;6676;45.192;5.722;2023-03-01T17:14:07;4.00;99.90
13223;DHT22;6676;45.192;5.722;2023-03-01T17:19:51;4.00;99.90
13223;DHT22;6676;45.192;5.722;2023-03-01T17:22:46;3.90;99.90
13223;DHT22;6676;45.192;5.722;2023-03-01T17:25:41;3.90;99.90
13223;DHT22;6676;45.192;5.722;2023-03-01T17:28:35;3.90;99.90
13223;DHT22;6676;45.192;5.722;2023-03-01T17:31:27;3.90;99.90
13223;DHT22;6676;45.192;5.722;2023-03-01T17:34:19;3.90;99.90
13223;DHT22;6676;45.192;5.722;2023-03-01T17:37:11;3.90;99.90
13223;DHT22;6676;45.192;5.722;2023-03-01T17:40:03;3.80;99.90
13223;DHT22;6676;45.192;5.722;2023-03-01T17:42:55;3.80;99.90
13223;DHT22;6676;45.192;5.722;2023-03-01T17:45:47;3.90;99.90
13223;DHT22;6676;45.192;5.722;2023-03-01T17:51:20;3.90;99.90
13223;DHT22;6676;45.192;5.722;2023-03-01T17:54:12;3.90;99.90
13223;DHT22;6676;45.192;5.722;2023-03-01T17:57:10;3.90;99.90
13223;DHT22;6676;45.192;5.722;2023-03-01T18:00:13;3.90;99.90
13223;DHT22;6676;45.192;5.722;2023-03-01T18:03:05;3.90;99.90
13223;DHT22;6676;45.192;5.722;2023-03-01T18:05:56;4.00;99.90
13223;DHT22;6676;45.192;5.722;2023-03-01T18:08:52;3.90;99.90
13223;DHT22;6676;45.192;5.722;2023-03-01T18:11:44;3.90;99.90
13223;DHT22;6676;45.192;5.722;2023-03-01T18:14:37;3.90;99.90
13223;DHT22;6676;45.192;5.722;2023-03-01T18:17:29;3.90;99.90
13223;DHT22;6676;45.192;5.722;2023-03-01T18:20:21;3.90;99.90
13223;DHT22;6676;45.192;5.722;2023-03-01T18:23:12;4.00;99.90
13223;DHT22;6676;45.192;5.722;2023-03-01T18:26:06;3.90;99.90
13223;DHT22;6676;45.192;5.722;2023-03-01T18:28:58;3.90;99.90
13223;DHT22;6676;45.192;5.722;2023-03-01T18:31:51;3.90;99.90
13223;DHT22;6676;45.192;5.722;2023-03-01T18:34:43;3.90;99.90
13223;DHT22;6676;45.192;5.722;2023-03-01T18:37:34;3.90;99.90
13223;DHT22;6676;45.192;5.722;2023-03-01T18:40:27;3.90;99.90
13223;DHT22;6676;45.192;5.722;2023-03-01T18:43:19;3.80;99.90
13223;DHT22;6676;45.192;5.722;2023-03-01T18:46:10;3.80;99.90
13223;DHT22;6676;45.192;5.722;2023-03-01T18:49:02;3.80;99.90
13223;DHT22;6676;45.192;5.722;2023-03-01T18:54:35;3.80;99.90
13223;DHT22;6676;45.192;5.722;2023-03-01T18:57:27;3.80;99.90
13223;DHT22;6676;45.192;5.722;2023-03-01T19:00:21;3.80;99.90
13223;DHT22;6676;45.192;5.722;2023-03-01T19:03:13;3.80;99.90
13223;DHT22;6676;45.192;5.722;2023-03-01T19:06:05;3.80;99.90
13223;DHT22;6676;45.192;5.722;2023-03-01T19:08:58;3.90;99.90
13223;DHT22;6676;45.192;5.722;2023-03-01T19:11:50;3.90;99.90
13223;DHT22;6676;45.192;5.722;2023-03-01T19:14:42;3.80;99.90
13223;DHT22;6676;45.192;5.722;2023-03-01T19:17:33;3.80;99.90
13223;DHT22;6676;45.192;5.722;2023-03-01T19:20:28;3.90;99.90
13223;DHT22;6676;45.192;5.722;2023-03-01T19:23:21;3.90;99.90
13223;DHT22;6676;45.192;5.722;2023-03-01T19:26:14;3.80;99.90
13223;DHT22;6676;45.192;5.722;2023-03-01T19:31:45;3.80;99.90
13223;DHT22;6676;45.192;5.722;2023-03-01T19:34:37;3.80;99.90
13223;DHT22;6676;45.192;5.722;2023-03-01T19:37:29;3.80;99.90
13223;DHT22;6676;45.192;5.722;2023-03-01T19:40:22;3.80;99.90
13223;DHT22;6676;45.192;5.722;2023-03-01T19:43:14;3.90;99.90
13223;DHT22;6676;45.192;5.722;2023-03-01T19:46:05;3.90;99.90
13223;DHT22;6676;45.192;5.722;2023-03-01T19:48:57;3.90;99.90
13223;DHT22;6676;45.192;5.722;2023-03-01T19:51:50;3.90;99.90
13223;DHT22;6676;45.192;5.722;2023-03-01T19:54:41;3.90;99.90
13223;DHT22;6676;45.192;5.722;2023-03-01T19:57:36;3.90;99.90
13223;DHT22;6676;45.192;5.722;2023-03-01T20:00:37;3.80;99.90
13223;DHT22;6676;45.192;5.722;2023-03-01T20:03:31;3.90;99.90